Aérodrome :
LOGIN :

S'inscrire | Disclaimer

   EN    FR    IT 

 










Légende :    VFR   VFR Marginal   IFR   IFR Intensif   IFR Très Intensif
Visi : 
Plafond : 
>= 8 km
>= 3000ft
5 à 8 km
1000 à 3000 ft
1500m à 5 km
500 à 1000 ft
800 à 1500m
200 à 500 ft
< 800m
< 200 ft
Symboles :   Orages  Brouillard  Fortes neiges  Fortes précipitations  Vent > 20 kt
SIGMETs :   Divers  Orages  Givrage  Turbulence  Onde Orograph.  Cendres Volcan.







- Altitude de l'aérodrome : 65 ft
- Code IATA : PIK
- Voir les cartes d'approche


EGPK - Glasgow Prestwick

DERNIER METAR :
  • 280650Z 08008KT 040V120 9999 FEW030 13/10 Q1004

METARs EXPIRÉS :
  • 280620Z 07008KT 9999 FEW030 13/10 Q1004
  • 280550Z 07007KT 9999 FEW030 12/09 Q1004
  • 280450Z 07007KT 9999 FEW030 12/09 Q1004

TAF TAF EGPK
Valide du 28 à 06h jusqu'au 29 à 06h UTC


280504Z 2806/2906 07012KT 9999 FEW030
BECMG 2900/2903 01009KT
PROB30
TEMPO 2900/2906 6000 RA BKN014
Pas de NOTAMs connus pour ce terrain.



MET'MAP, la Météo Aéronautique d'un coup d'oeil ! - Copyright ORBIFLY Décembre 2007 - Disclaimer

ORBIFLY MET'MAP TEAM :

Programmation & Développement : Alexandra Zaïnal
Conception & Développement : Baudouin d'Aumeries
Co-Programmation & Développement : Marc-Olivier Méhu
Soutien technique & logistique : Manuel Goepfert

Contact : metmap@orbifly.com




SOURCES & CREDITS :

   NOAA